createdAt,value
2019-01-14T00:01:38.264Z,428.50
2019-01-14T00:04:07.936Z,451.80
2019-01-14T00:06:37.608Z,426.50
2019-01-14T00:09:09.388Z,453.83
2019-01-14T00:11:39.047Z,457.80
2019-01-14T00:14:08.711Z,441.33
2019-01-14T00:16:38.496Z,431.80
2019-01-14T00:19:08.211Z,447.67
2019-01-14T00:21:37.876Z,475.00
2019-01-14T00:24:07.552Z,418.27
2019-01-14T00:26:37.259Z,415.90
2019-01-14T00:29:07.003Z,442.67
2019-01-14T00:31:37.045Z,435.50
2019-01-14T00:34:06.795Z,460.90
2019-01-14T00:36:36.583Z,438.33
2019-01-14T00:39:07.728Z,477.03
2019-01-14T00:41:37.401Z,464.33
2019-01-14T00:44:07.072Z,434.17
2019-01-14T00:46:36.756Z,476.27
2019-01-14T00:49:06.468Z,433.50
2019-01-14T00:51:36.136Z,476.13
2019-01-14T00:54:05.827Z,467.73
2019-01-14T00:56:35.493Z,429.40
2019-01-14T00:59:05.204Z,449.53
2019-01-14T01:01:34.883Z,446.70
2019-01-14T01:04:04.707Z,498.73
2019-01-14T01:06:34.381Z,474.00
2019-01-14T01:09:06.259Z,469.20
2019-01-14T01:11:36.172Z,490.83
2019-01-14T01:14:05.849Z,490.57
2019-01-14T01:16:35.528Z,477.07
2019-01-14T01:19:05.240Z,459.80
2019-01-14T01:21:34.912Z,489.23
2019-01-14T01:24:04.589Z,471.87
2019-01-14T01:26:34.368Z,436.90
2019-01-14T01:29:04.119Z,477.37
2019-01-14T01:31:34.221Z,489.97
2019-01-14T01:34:03.884Z,450.97
2019-01-14T01:36:33.540Z,536.30
2019-01-14T01:39:04.840Z,485.90
2019-01-14T01:41:34.496Z,499.07
2019-01-14T01:44:04.165Z,453.70
2019-01-14T01:46:33.852Z,454.97
2019-01-14T01:49:03.603Z,494.83
2019-01-14T01:51:33.274Z,489.23
2019-01-14T01:54:02.944Z,488.93
2019-01-14T01:56:32.632Z,482.13
2019-01-14T01:59:02.341Z,480.20
2019-01-14T02:01:32.074Z,493.03
2019-01-14T02:04:01.793Z,482.17
2019-01-14T02:06:31.471Z,475.13
2019-01-14T02:09:01.180Z,493.57
2019-01-14T02:11:30.852Z,498.90
2019-01-14T02:14:00.840Z,496.30
2019-01-14T02:16:30.620Z,498.07
2019-01-14T02:19:00.432Z,498.73
2019-01-14T02:21:30.103Z,505.07
2019-01-14T02:23:59.770Z,492.63
2019-01-14T02:26:29.428Z,486.83
2019-01-14T02:28:59.168Z,509.13
2019-01-14T02:31:28.913Z,501.37
2019-01-14T02:33:58.610Z,505.67
2019-01-14T02:36:28.298Z,519.20
2019-01-14T02:38:58.007Z,496.77
2019-01-14T02:41:27.680Z,505.33
2019-01-14T02:43:57.355Z,524.23
2019-01-14T02:46:27.037Z,527.87
2019-01-14T02:48:56.772Z,538.10
2019-01-14T02:51:26.458Z,461.60
2019-01-14T02:53:56.123Z,511.00
2019-01-14T02:56:25.797Z,517.57
2019-01-14T02:58:55.488Z,464.20
2019-01-14T03:01:25.154Z,510.30
2019-01-14T03:03:54.866Z,511.33
2019-01-14T03:06:24.539Z,490.17
2019-01-14T03:08:54.220Z,511.00
2019-01-14T03:11:23.890Z,514.40
2019-01-14T03:13:53.560Z,515.93
2019-01-14T03:16:23.251Z,500.77
2019-01-14T03:18:53.166Z,510.90
2019-01-14T03:21:22.851Z,480.47
2019-01-14T03:23:52.508Z,522.17
2019-01-14T03:26:22.193Z,509.70
2019-01-14T03:28:51.900Z,491.67
2019-01-14T03:31:21.712Z,497.60
2019-01-14T03:33:51.380Z,471.50
2019-01-14T03:36:21.132Z,490.80
2019-01-14T03:38:50.845Z,485.40
2019-01-14T03:41:20.513Z,480.87
2019-01-14T03:43:50.184Z,463.07
2019-01-14T03:46:19.872Z,487.67
2019-01-14T03:48:49.579Z,514.30
2019-01-14T03:51:19.264Z,479.03
2019-01-14T03:53:48.922Z,498.37
2019-01-14T03:56:18.587Z,515.13
2019-01-14T03:58:48.333Z,480.37
2019-01-14T04:01:17.983Z,494.30
2019-01-14T04:03:47.670Z,580.50
2019-01-14T04:06:17.348Z,588.90
2019-01-14T04:08:47.101Z,557.67
2019-01-14T04:11:16.768Z,526.00
2019-01-14T04:13:46.437Z,495.73
2019-01-14T04:16:16.110Z,486.23
2019-01-14T04:18:45.790Z,463.03
2019-01-14T04:21:15.528Z,466.03
2019-01-14T04:23:45.197Z,460.23
2019-01-14T04:26:17.649Z,453.70
2019-01-14T04:28:47.400Z,449.47
2019-01-14T04:31:17.107Z,442.50
2019-01-14T04:33:46.969Z,442.47
2019-01-14T04:36:16.613Z,425.93
2019-01-14T04:38:46.650Z,441.93
2019-01-14T04:41:16.315Z,438.73
2019-01-14T04:43:45.989Z,432.27
2019-01-14T04:46:15.659Z,415.40
2019-01-14T04:48:45.384Z,408.67
2019-01-14T04:51:15.055Z,408.00
2019-01-14T04:53:44.727Z,426.83
2019-01-14T04:56:14.413Z,414.27
2019-01-14T04:58:44.147Z,418.33
2019-01-14T05:01:13.815Z,415.40
2019-01-14T05:03:44.731Z,414.80
2019-01-14T05:06:14.666Z,425.47
2019-01-14T05:08:44.406Z,423.93
2019-01-14T05:11:14.134Z,427.07
2019-01-14T05:13:43.784Z,427.10
2019-01-14T05:16:13.515Z,426.97
2019-01-14T05:18:43.239Z,374.10
2019-01-14T05:21:12.948Z,322.40
2019-01-14T05:23:42.619Z,338.83
2019-01-14T05:26:12.287Z,329.30
2019-01-14T05:28:42.003Z,314.13
2019-01-14T05:31:30.859Z,363.60
2019-01-14T05:34:00.601Z,378.10
2019-01-14T05:36:30.294Z,348.43
2019-01-14T05:39:00.040Z,357.83
2019-01-14T05:41:29.754Z,306.73
2019-01-14T05:43:59.442Z,281.90
2019-01-14T05:46:29.508Z,302.83
2019-01-14T05:48:59.275Z,313.87
2019-01-14T05:51:28.996Z,319.03
2019-01-14T05:53:58.697Z,309.70
2019-01-14T05:56:28.370Z,324.00
2019-01-14T05:58:58.087Z,360.07
2019-01-14T06:01:27.905Z,385.80
2019-01-14T06:03:57.601Z,394.20
2019-01-14T06:06:27.271Z,379.63
2019-01-14T06:08:57.023Z,399.07
2019-01-14T06:11:26.727Z,399.87
2019-01-14T06:13:56.416Z,395.57
2019-01-14T06:16:26.128Z,400.57
2019-01-14T06:18:55.864Z,399.57
2019-01-14T06:21:25.549Z,406.97
2019-01-14T06:23:55.231Z,436.27
2019-01-14T06:26:24.888Z,415.27
2019-01-14T06:28:54.623Z,429.67
2019-01-14T06:31:24.265Z,416.60
2019-01-14T06:33:54.124Z,431.23
2019-01-14T06:36:23.869Z,416.53
2019-01-14T06:38:53.619Z,425.73
2019-01-14T06:41:23.370Z,424.17
2019-01-14T06:43:53.035Z,430.37
2019-01-14T06:46:22.747Z,435.00
2019-01-14T06:48:52.696Z,453.87
2019-01-14T06:51:22.395Z,450.67
2019-01-14T06:53:52.313Z,465.60
2019-01-14T06:56:22.331Z,473.33
2019-01-14T06:58:52.035Z,473.00
2019-01-14T07:01:21.843Z,473.13
2019-01-14T07:03:51.564Z,490.43
2019-01-14T07:06:22.415Z,486.60
2019-01-14T07:08:52.327Z,457.90
2019-01-14T07:11:22.407Z,441.97
2019-01-14T07:13:52.083Z,460.57
2019-01-14T07:16:21.824Z,466.87
2019-01-14T07:18:51.560Z,476.60
2019-01-14T07:21:21.249Z,508.90
2019-01-14T07:23:50.936Z,524.37
2019-01-14T07:26:20.685Z,512.20
2019-01-14T07:28:50.474Z,507.23
2019-01-14T07:31:20.124Z,487.23
2019-01-14T07:33:49.891Z,491.27
2019-01-14T07:36:19.839Z,503.93
2019-01-14T07:38:49.548Z,493.90
2019-01-14T07:41:19.235Z,493.07
2019-01-14T07:44:00.806Z,487.00
2019-01-14T07:46:30.492Z,468.67
2019-01-14T07:49:00.268Z,453.80
2019-01-14T07:51:29.960Z,480.20
2019-01-14T07:53:59.688Z,458.23
2019-01-14T07:56:29.476Z,440.43
2019-01-14T07:58:59.805Z,410.73
2019-01-14T08:01:29.614Z,444.13
2019-01-14T08:03:59.327Z,434.20
2019-01-14T08:06:29.011Z,459.87
2019-01-14T08:08:58.773Z,440.60
2019-01-14T08:11:28.485Z,473.87
2019-01-14T08:13:58.181Z,446.57
2019-01-14T08:16:27.847Z,488.83
2019-01-14T08:18:57.620Z,454.83
2019-01-14T08:21:27.323Z,420.73
2019-01-14T08:23:57.075Z,468.30
2019-01-14T08:26:26.778Z,486.03
2019-01-14T08:28:56.549Z,467.30
2019-01-14T08:31:26.235Z,469.60
2019-01-14T08:33:56.152Z,445.03
2019-01-14T08:36:25.860Z,431.93
2019-01-14T08:38:55.595Z,435.20
2019-01-14T08:41:29.753Z,442.70
2019-01-14T08:44:03.963Z,451.37
2019-01-14T08:46:33.816Z,457.20
2019-01-14T08:49:03.706Z,350.87
2019-01-14T08:51:33.375Z,426.63
2019-01-14T08:54:03.051Z,442.37
2019-01-14T08:56:32.735Z,464.00
2019-01-14T08:59:02.576Z,416.73
2019-01-14T09:01:32.280Z,447.10
2019-01-14T09:04:02.013Z,466.73
2019-01-14T09:06:31.659Z,480.77
2019-01-14T09:09:01.533Z,449.37
2019-01-14T09:11:31.231Z,441.80
2019-01-14T09:14:01.008Z,451.53
2019-01-14T09:16:30.752Z,433.50
2019-01-14T09:19:00.475Z,455.10
2019-01-14T09:21:30.137Z,437.33
2019-01-14T09:23:59.833Z,436.67
2019-01-14T09:26:29.504Z,455.50
2019-01-14T09:28:59.214Z,443.20
2019-01-14T09:31:30.852Z,455.23
2019-01-14T09:34:00.692Z,478.67
2019-01-14T09:36:30.396Z,460.60
2019-01-14T09:39:00.105Z,454.53
2019-01-14T09:41:29.792Z,441.13
2019-01-14T09:43:59.500Z,421.77
2019-01-14T09:46:29.517Z,437.20
2019-01-14T09:48:59.251Z,429.27
2019-01-14T09:51:28.959Z,446.17
2019-01-14T09:53:58.624Z,448.83
2019-01-14T09:56:28.275Z,456.83
2019-01-14T09:58:58.271Z,421.33
2019-01-14T10:01:27.967Z,400.93
2019-01-14T10:03:57.735Z,423.30
2019-01-14T10:06:27.531Z,425.60
2019-01-14T10:08:57.255Z,448.50
2019-01-14T10:11:27.027Z,456.90
2019-01-14T10:13:56.694Z,444.97
2019-01-14T10:16:26.755Z,425.80
2019-01-14T10:18:56.489Z,446.87
2019-01-14T10:21:26.210Z,436.47
2019-01-14T10:23:55.921Z,427.90
2019-01-14T10:26:25.592Z,442.33
2019-01-14T10:28:55.325Z,437.10
2019-01-14T10:31:24.995Z,444.87
2019-01-14T10:33:54.743Z,433.43
2019-01-14T10:36:24.506Z,446.47
2019-01-14T10:38:54.422Z,453.00
2019-01-14T10:41:24.120Z,446.07
2019-01-14T10:43:53.793Z,437.67
2019-01-14T10:46:23.604Z,407.80
2019-01-14T10:48:53.353Z,433.53
2019-01-14T10:51:23.033Z,437.60
2019-01-14T10:53:52.768Z,438.40
2019-01-14T10:56:22.463Z,432.43
2019-01-14T10:58:52.339Z,418.80
2019-01-14T11:01:22.028Z,435.67
2019-01-14T11:03:51.698Z,422.63
2019-01-14T11:06:21.488Z,434.47
2019-01-14T11:08:57.380Z,432.43
2019-01-14T11:11:22.627Z,407.10
2019-01-14T11:13:52.323Z,410.70
2019-01-14T11:16:22.026Z,404.90
2019-01-14T11:18:52.483Z,417.27
2019-01-14T11:21:22.184Z,406.03
2019-01-14T11:23:51.856Z,403.03
2019-01-14T11:26:21.528Z,422.30
2019-01-14T11:28:51.263Z,410.47
2019-01-14T11:31:21.013Z,409.50
2019-01-14T11:33:50.709Z,417.13
2019-01-14T11:36:20.413Z,411.17
2019-01-14T11:38:51.616Z,424.47
2019-01-14T11:41:22.656Z,411.03
2019-01-14T11:43:52.344Z,413.53
2019-01-14T11:46:22.261Z,422.30
2019-01-14T11:48:52.075Z,401.37
2019-01-14T11:51:21.798Z,393.90
2019-01-14T11:53:51.490Z,396.73
2019-01-14T11:56:21.173Z,378.27
2019-01-14T11:58:50.912Z,378.77
2019-01-14T12:01:20.617Z,367.90
2019-01-14T12:03:51.327Z,394.93
2019-01-14T12:06:21.032Z,379.13
2019-01-14T12:08:50.799Z,385.20
2019-01-14T12:11:20.508Z,369.77
2019-01-14T12:13:50.186Z,397.10
2019-01-14T12:16:19.922Z,377.63
2019-01-14T12:18:55.494Z,387.77
2019-01-14T12:21:25.157Z,391.53
2019-01-14T12:23:54.830Z,387.60
2019-01-14T12:26:24.505Z,380.23
2019-01-14T12:28:54.316Z,361.73
2019-01-14T12:31:24.227Z,372.53
2019-01-14T12:33:53.912Z,346.37
2019-01-14T12:36:23.604Z,366.93
2019-01-14T12:38:53.388Z,368.57
2019-01-14T12:41:23.072Z,355.50
2019-01-14T12:43:52.789Z,370.27
2019-01-14T12:46:22.490Z,378.77
2019-01-14T12:48:52.335Z,366.03
2019-01-14T12:51:22.009Z,367.80
2019-01-14T12:53:51.727Z,355.17
2019-01-14T12:56:21.429Z,352.03
2019-01-14T12:58:51.115Z,361.10
2019-01-14T13:01:20.825Z,373.27
2019-01-14T13:03:50.537Z,364.50
2019-01-14T13:06:20.267Z,361.07
2019-01-14T13:08:49.984Z,362.90
2019-01-14T13:11:23.321Z,377.23
2019-01-14T13:13:53.268Z,359.73
2019-01-14T13:16:22.960Z,362.20
2019-01-14T13:18:52.816Z,355.93
2019-01-14T13:21:22.599Z,345.67
2019-01-14T13:23:52.445Z,344.30
2019-01-14T13:26:22.189Z,364.43
2019-01-14T13:28:51.971Z,356.13
2019-01-14T13:31:21.643Z,324.13
2019-01-14T13:33:51.380Z,353.10
2019-01-14T13:36:21.191Z,340.43
2019-01-14T13:38:51.056Z,341.70
2019-01-14T13:41:21.039Z,335.33
2019-01-14T13:43:50.914Z,353.83
2019-01-14T13:46:26.230Z,362.50
2019-01-14T13:48:52.183Z,356.67
2019-01-14T13:51:21.964Z,347.30
2019-01-14T13:53:51.695Z,351.43
2019-01-14T13:56:21.380Z,347.40
2019-01-14T13:58:51.120Z,342.97
2019-01-14T14:01:20.903Z,350.80
2019-01-14T14:03:50.564Z,352.50
2019-01-14T14:06:20.272Z,334.57
2019-01-14T14:08:50.041Z,340.87
2019-01-14T14:11:19.895Z,347.07
2019-01-14T14:13:49.685Z,351.43
2019-01-14T14:16:19.487Z,329.67
2019-01-14T14:18:49.361Z,339.67
2019-01-14T14:21:19.178Z,348.67
2019-01-14T14:23:48.832Z,331.53
2019-01-14T14:26:18.555Z,346.93
2019-01-14T14:28:48.258Z,365.97
2019-01-14T14:31:17.963Z,370.97
2019-01-14T14:33:47.629Z,367.80
2019-01-14T14:36:17.316Z,366.87
2019-01-14T14:38:48.054Z,361.87
2019-01-14T14:41:29.932Z,362.23
2019-01-14T14:43:59.700Z,348.60
2019-01-14T14:46:29.497Z,341.53
2019-01-14T14:48:59.308Z,336.80
2019-01-14T14:51:29.090Z,337.43
2019-01-14T14:53:58.789Z,333.97
2019-01-14T14:56:28.479Z,341.53
2019-01-14T14:59:17.250Z,357.37
2019-01-14T15:01:46.972Z,331.00
2019-01-14T15:04:17.085Z,343.93
2019-01-14T15:06:46.797Z,337.03
2019-01-14T15:09:16.492Z,336.10
2019-01-14T15:11:46.327Z,348.60
2019-01-14T15:14:16.112Z,335.33
2019-01-14T15:16:45.869Z,344.47
2019-01-14T15:19:15.979Z,359.17
2019-01-14T15:21:45.771Z,310.00
2019-01-14T15:24:15.535Z,333.30
2019-01-14T15:26:45.235Z,346.00
2019-01-14T15:29:15.012Z,343.00
2019-01-14T15:31:44.726Z,327.60
2019-01-14T15:34:14.445Z,320.23
2019-01-14T15:36:44.155Z,352.40
2019-01-14T15:39:14.064Z,329.63
2019-01-14T15:41:43.804Z,332.53
2019-01-14T15:44:13.535Z,333.07
2019-01-14T15:46:43.903Z,342.67
2019-01-14T15:49:13.766Z,340.37
2019-01-14T15:51:43.480Z,334.80
2019-01-14T15:54:13.231Z,348.17
2019-01-14T15:56:42.941Z,344.27
2019-01-14T15:59:12.652Z,340.57
2019-01-14T16:01:42.463Z,342.40
2019-01-14T16:04:12.188Z,328.67
2019-01-14T16:06:41.884Z,334.10
2019-01-14T16:09:11.596Z,329.50
2019-01-14T16:11:41.259Z,307.07
2019-01-14T16:14:10.926Z,313.83
2019-01-14T16:16:40.622Z,261.63
2019-01-14T16:19:10.515Z,310.17
2019-01-14T16:21:40.203Z,294.53
2019-01-14T16:24:09.890Z,297.43
2019-01-14T16:26:39.575Z,300.30
2019-01-14T16:29:09.276Z,266.97
2019-01-14T16:31:38.965Z,196.23
2019-01-14T16:34:08.707Z,185.20
2019-01-14T16:36:38.387Z,168.70
2019-01-14T16:39:09.357Z,151.57
2019-01-14T16:41:39.046Z,148.13
2019-01-14T16:44:10.953Z,144.20
2019-01-14T16:46:40.631Z,136.90
2019-01-14T16:49:10.451Z,137.43
2019-01-14T16:51:40.167Z,130.43
2019-01-14T16:54:09.837Z,136.50
2019-01-14T16:56:39.656Z,138.53
2019-01-14T16:59:09.357Z,132.50
2019-01-14T17:01:39.166Z,141.63
2019-01-14T17:04:08.900Z,134.07
2019-01-14T17:06:38.686Z,133.63
2019-01-14T17:09:09.687Z,128.33
2019-01-14T17:11:39.363Z,125.03
2019-01-14T17:14:09.071Z,120.83
2019-01-14T17:16:38.760Z,119.53
2019-01-14T17:19:08.504Z,116.13
2019-01-14T17:21:38.207Z,110.30
2019-01-14T17:24:07.861Z,110.77
2019-01-14T17:26:37.528Z,112.87
2019-01-14T17:29:07.332Z,111.70
2019-01-14T17:31:37.020Z,116.20
2019-01-14T17:34:06.707Z,106.87
2019-01-14T17:36:36.440Z,103.43
2019-01-14T17:39:08.671Z,113.00
2019-01-14T17:41:39.241Z,106.27
2019-01-14T17:44:08.986Z,97.83
2019-01-14T17:46:38.760Z,93.67
2019-01-14T17:49:08.532Z,99.13
2019-01-14T17:51:38.366Z,92.53
2019-01-14T17:54:08.157Z,94.20
2019-01-14T17:56:37.979Z,79.47
2019-01-14T17:59:07.784Z,97.23
2019-01-14T18:01:37.596Z,87.70
2019-01-14T18:04:07.413Z,82.67
2019-01-14T18:06:37.079Z,90.70
2019-01-14T18:09:08.736Z,99.53
2019-01-14T18:11:38.419Z,88.57
2019-01-14T18:14:08.133Z,87.60
2019-01-14T18:16:37.819Z,79.40
2019-01-14T18:19:07.912Z,96.70
2019-01-14T18:21:37.578Z,91.37
2019-01-14T18:24:07.236Z,85.77
2019-01-14T18:26:37.988Z,87.53
2019-01-14T18:29:07.747Z,94.77
2019-01-14T18:31:37.425Z,93.63
2019-01-14T18:34:07.220Z,99.73
2019-01-14T18:36:36.881Z,108.70
2019-01-14T18:39:08.547Z,95.60
2019-01-14T18:41:38.242Z,98.37
2019-01-14T18:44:08.033Z,96.00
2019-01-14T18:46:37.741Z,78.83
2019-01-14T18:49:07.520Z,93.10
2019-01-14T18:51:37.184Z,88.17
2019-01-14T18:54:06.895Z,95.30
2019-01-14T18:56:36.536Z,76.50
2019-01-14T18:59:06.261Z,74.93
2019-01-14T19:01:36.136Z,106.13
2019-01-14T19:04:05.915Z,120.33
2019-01-14T19:06:35.587Z,129.60
2019-01-14T19:09:08.531Z,107.43
2019-01-14T19:11:38.277Z,99.47
2019-01-14T19:14:07.953Z,93.67
2019-01-14T19:16:37.666Z,91.13
2019-01-14T19:19:07.491Z,102.40
2019-01-14T19:21:37.144Z,104.67
2019-01-14T19:24:06.831Z,101.03
2019-01-14T19:26:36.544Z,101.20
2019-01-14T19:29:06.315Z,109.63
2019-01-14T19:31:35.972Z,90.10
2019-01-14T19:34:05.714Z,81.47
2019-01-14T19:36:35.556Z,93.97
2019-01-14T19:39:08.548Z,82.30
2019-01-14T19:41:38.301Z,78.27
2019-01-14T19:44:08.004Z,81.70
2019-01-14T19:46:37.673Z,72.80
2019-01-14T19:49:07.353Z,78.07
2019-01-14T19:51:37.091Z,74.00
2019-01-14T19:54:07.795Z,68.60
2019-01-14T19:56:38.492Z,60.80
2019-01-14T19:59:08.262Z,66.33
2019-01-14T20:01:37.923Z,57.83
2019-01-14T20:04:08.377Z,62.67
2019-01-14T20:06:38.110Z,58.50
2019-01-14T20:09:07.859Z,50.50
2019-01-14T20:11:37.532Z,48.37
2019-01-14T20:14:07.240Z,51.43
2019-01-14T20:16:37.472Z,49.73
2019-01-14T20:19:08.228Z,46.73
2019-01-14T20:21:38.050Z,44.40
2019-01-14T20:24:07.719Z,47.67
2019-01-14T20:26:37.406Z,43.87
2019-01-14T20:29:07.129Z,36.43
2019-01-14T20:31:36.833Z,38.67
2019-01-14T20:34:06.500Z,39.77
2019-01-14T20:36:36.287Z,41.93
2019-01-14T20:39:09.462Z,35.43
2019-01-14T20:41:39.275Z,37.87
2019-01-14T20:44:08.959Z,32.50
2019-01-14T20:46:38.640Z,33.60
2019-01-14T20:49:08.599Z,34.10
2019-01-14T20:51:38.248Z,33.17
2019-01-14T20:54:07.935Z,30.43
2019-01-14T20:56:37.607Z,29.70
2019-01-14T20:59:07.321Z,30.63
2019-01-14T21:01:36.984Z,32.87
2019-01-14T21:04:08.531Z,33.17
2019-01-14T21:06:38.174Z,35.50
2019-01-14T21:09:08.229Z,30.97
2019-01-14T21:11:37.875Z,31.70
2019-01-14T21:14:07.550Z,33.30
2019-01-14T21:16:37.209Z,28.13
2019-01-14T21:19:07.992Z,28.63
2019-01-14T21:21:37.640Z,28.57
2019-01-14T21:24:07.311Z,31.07
2019-01-14T21:26:36.965Z,28.17
2019-01-14T21:29:06.708Z,28.50
2019-01-14T21:31:36.373Z,25.30
2019-01-14T21:34:06.054Z,24.13
2019-01-14T21:36:35.735Z,27.10
2019-01-14T21:39:06.428Z,24.73
2019-01-14T21:41:36.098Z,23.10
2019-01-14T21:44:05.757Z,21.57
2019-01-14T21:46:35.833Z,22.63
2019-01-14T21:49:05.511Z,21.13
2019-01-14T21:51:35.189Z,20.63
2019-01-14T21:54:04.910Z,21.53
2019-01-14T21:56:34.563Z,18.77
2019-01-14T21:59:04.256Z,20.13
2019-01-14T22:01:33.915Z,18.77
2019-01-14T22:04:03.795Z,17.17
2019-01-14T22:06:33.512Z,19.70
2019-01-14T22:09:03.747Z,18.80
2019-01-14T22:11:38.657Z,16.80
2019-01-14T22:14:04.740Z,15.77
2019-01-14T22:16:34.394Z,17.93
2019-01-14T22:19:04.080Z,14.10
2019-01-14T22:21:33.749Z,14.67
2019-01-14T22:24:03.421Z,15.73
2019-01-14T22:26:33.071Z,14.50
2019-01-14T22:29:02.821Z,12.37
2019-01-14T22:31:32.490Z,12.40
2019-01-14T22:34:02.160Z,13.50
2019-01-14T22:36:31.848Z,15.07
2019-01-14T22:39:01.546Z,12.13
2019-01-14T22:41:31.224Z,13.47
2019-01-14T22:44:01.032Z,14.53
2019-01-14T22:46:30.748Z,13.43
2019-01-14T22:49:00.502Z,12.30
2019-01-14T22:51:30.168Z,11.60
2019-01-14T22:53:59.845Z,12.57
2019-01-14T22:56:29.483Z,10.13
2019-01-14T22:58:59.226Z,10.23
2019-01-14T23:01:39.760Z,11.67
2019-01-14T23:04:09.596Z,12.07
2019-01-14T23:06:39.348Z,9.60
2019-01-14T23:09:10.183Z,9.93
2019-01-14T23:11:39.926Z,9.23
2019-01-14T23:14:09.601Z,8.20
2019-01-14T23:16:39.265Z,8.67
2019-01-14T23:19:08.988Z,8.93
2019-01-14T23:21:38.660Z,10.03
2019-01-14T23:24:08.315Z,9.47
2019-01-14T23:26:37.984Z,7.77
2019-01-14T23:29:07.738Z,7.43
2019-01-14T23:31:37.416Z,8.13
2019-01-14T23:34:07.076Z,6.93
2019-01-14T23:36:42.787Z,8.13
2019-01-14T23:39:12.506Z,6.30
2019-01-14T23:41:42.184Z,6.73
2019-01-14T23:44:11.856Z,7.00
2019-01-14T23:46:41.547Z,6.00
2019-01-14T23:49:11.244Z,7.13
2019-01-14T23:51:40.923Z,7.70
2019-01-14T23:54:10.576Z,6.47
2019-01-14T23:56:40.240Z,6.43
2019-01-14T23:59:09.986Z,8.23
